createdAt,value
2023-02-13T00:00:49.160Z,43.80
2023-02-13T00:03:23.496Z,39.92
2023-02-13T00:05:51.007Z,38.00
2023-02-13T00:08:18.273Z,38.60
2023-02-13T00:10:45.739Z,37.63
2023-02-13T00:13:12.856Z,40.42
2023-02-13T00:15:40.335Z,36.67
2023-02-13T00:18:07.486Z,36.35
2023-02-13T00:20:34.880Z,37.47
2023-02-13T00:23:02.309Z,40.92
2023-02-13T00:25:29.741Z,37.80
2023-02-13T00:27:56.947Z,36.58
2023-02-13T00:30:24.456Z,38.08
2023-02-13T00:32:52.006Z,42.67
2023-02-13T00:35:19.475Z,46.92
2023-02-13T00:37:46.758Z,36.10
2023-02-13T00:40:14.461Z,41.28
2023-02-13T00:42:41.572Z,38.85
2023-02-13T00:45:09.456Z,44.13
2023-02-13T00:47:36.609Z,43.58
2023-02-13T00:50:04.317Z,37.30
2023-02-13T00:52:31.463Z,43.95
2023-02-13T00:54:58.922Z,36.47
2023-02-13T00:57:26.085Z,37.13
2023-02-13T00:59:53.640Z,38.10
2023-02-13T01:02:20.780Z,39.13
2023-02-13T01:04:48.305Z,53.80
2023-02-13T01:07:16.679Z,40.78
2023-02-13T01:09:44.898Z,35.60
2023-02-13T01:12:12.160Z,38.60
2023-02-13T01:14:39.600Z,35.55
2023-02-13T01:17:06.722Z,34.17
2023-02-13T01:19:34.370Z,33.88
2023-02-13T01:22:01.536Z,40.95
2023-02-13T01:24:30.162Z,33.75
2023-02-13T01:27:02.480Z,37.75
2023-02-13T01:29:30.305Z,38.00
2023-02-13T01:31:57.536Z,35.35
2023-02-13T01:34:29.357Z,34.72
2023-02-13T01:36:56.659Z,30.38
2023-02-13T01:39:26.097Z,33.15
2023-02-13T01:41:53.360Z,34.88
2023-02-13T01:44:46.881Z,39.47
2023-02-13T01:47:22.604Z,37.33
2023-02-13T01:49:54.686Z,33.90
2023-02-13T01:52:21.848Z,36.67
2023-02-13T01:54:49.311Z,41.35
2023-02-13T01:57:22.193Z,29.90
2023-02-13T01:59:59.051Z,34.10
2023-02-13T02:02:31.671Z,32.40
2023-02-13T02:05:03.338Z,34.55
2023-02-13T02:07:31.743Z,33.65
2023-02-13T02:10:09.344Z,34.88
2023-02-13T02:12:42.672Z,31.13
2023-02-13T02:15:12.231Z,34.08
2023-02-13T02:17:39.789Z,31.65
2023-02-13T02:20:10.771Z,32.40
2023-02-13T02:22:49.680Z,29.45
2023-02-13T02:25:45.800Z,32.17
2023-02-13T02:28:38.015Z,31.52
2023-02-13T02:31:05.612Z,32.42
2023-02-13T02:33:49.903Z,30.73
2023-02-13T02:36:40.923Z,30.25
2023-02-13T02:39:15.598Z,33.15
2023-02-13T02:42:09.582Z,27.98
2023-02-13T02:44:38.093Z,29.35
2023-02-13T02:47:44.232Z,32.90
2023-02-13T02:50:23.745Z,30.30
2023-02-13T02:53:23.906Z,30.00
2023-02-13T02:56:13.669Z,32.22
2023-02-13T02:59:19.022Z,26.13
2023-02-13T03:02:05.560Z,27.10
2023-02-13T03:04:58.964Z,24.48
2023-02-13T03:07:26.985Z,30.48
2023-02-13T03:10:18.072Z,26.83
2023-02-13T03:13:15.424Z,28.48
2023-02-13T03:16:03.607Z,28.38
2023-02-13T03:18:53.746Z,25.95
2023-02-13T03:21:45.615Z,28.27
2023-02-13T03:24:35.400Z,24.17
2023-02-13T03:27:12.047Z,24.33
2023-02-13T03:30:11.819Z,23.90
2023-02-13T03:32:42.009Z,19.45
2023-02-13T03:35:43.595Z,24.08
2023-02-13T03:38:18.648Z,20.23
2023-02-13T03:41:27.849Z,18.70
2023-02-13T03:44:23.739Z,19.95
2023-02-13T03:46:54.928Z,20.23
2023-02-13T03:49:50.210Z,22.90
2023-02-13T03:52:29.350Z,18.30
2023-02-13T03:55:28.850Z,21.00
2023-02-13T03:58:21.096Z,19.38
2023-02-13T04:00:54.383Z,18.70
2023-02-13T04:03:27.420Z,17.67
2023-02-13T04:06:12.923Z,19.70
2023-02-13T04:08:40.286Z,19.45
2023-02-13T04:11:10.318Z,21.67
2023-02-13T04:13:45.509Z,17.10
2023-02-13T04:16:29.117Z,20.85
2023-02-13T04:18:58.006Z,19.60
2023-02-13T04:21:25.505Z,22.35
2023-02-13T04:23:52.819Z,22.17
2023-02-13T04:26:23.249Z,22.65
2023-02-13T04:28:50.498Z,19.10
2023-02-13T04:31:17.974Z,20.65
2023-02-13T04:33:45.221Z,19.15
2023-02-13T04:36:12.674Z,22.67
2023-02-13T04:38:39.919Z,16.35
2023-02-13T04:41:07.360Z,18.88
2023-02-13T04:43:34.443Z,18.92
2023-02-13T04:46:01.944Z,17.10
2023-02-13T04:48:29.483Z,19.23
2023-02-13T04:50:57.223Z,18.48
2023-02-13T04:53:24.548Z,21.80
2023-02-13T04:55:52.344Z,18.15
2023-02-13T04:58:19.592Z,18.50
2023-02-13T05:00:47.024Z,18.55
2023-02-13T05:03:14.503Z,14.90
2023-02-13T05:05:41.920Z,15.75
2023-02-13T05:08:09.436Z,15.32
2023-02-13T05:10:37.067Z,19.33
2023-02-13T05:13:04.319Z,15.40
2023-02-13T05:15:31.942Z,14.30
2023-02-13T05:17:59.492Z,14.98
2023-02-13T05:20:27.331Z,13.57
2023-02-13T05:23:13.210Z,14.73
2023-02-13T05:25:41.944Z,14.85
2023-02-13T05:28:27.721Z,11.88
2023-02-13T05:30:55.301Z,13.20
2023-02-13T05:33:22.478Z,12.60
2023-02-13T05:35:50.421Z,12.60
2023-02-13T05:38:17.666Z,12.73
2023-02-13T05:40:45.246Z,12.65
2023-02-13T05:43:12.411Z,11.90
2023-02-13T05:45:39.795Z,14.05
2023-02-13T05:48:06.932Z,10.00
2023-02-13T05:50:34.390Z,14.27
2023-02-13T05:53:01.865Z,12.70
2023-02-13T05:55:29.394Z,11.98
2023-02-13T05:57:57.844Z,17.10
2023-02-13T06:00:25.618Z,13.40
2023-02-13T06:02:52.856Z,11.13
2023-02-13T06:05:20.431Z,10.27
2023-02-13T06:07:47.554Z,13.82
2023-02-13T06:10:15.005Z,63.95
2023-02-13T06:12:43.866Z,13.65
2023-02-13T06:15:11.330Z,11.73
2023-02-13T06:17:38.510Z,11.75
2023-02-13T06:20:08.241Z,10.88
2023-02-13T06:22:35.507Z,12.10
2023-02-13T06:25:03.066Z,10.70
2023-02-13T06:27:30.289Z,15.77
2023-02-13T06:29:57.775Z,8.85
2023-02-13T06:32:24.902Z,11.80
2023-02-13T06:34:53.024Z,12.13
2023-02-13T06:37:20.180Z,12.60
2023-02-13T06:39:47.723Z,6.93
2023-02-13T06:42:14.910Z,12.57
2023-02-13T06:44:42.314Z,11.90
2023-02-13T06:47:09.680Z,12.98
2023-02-13T06:49:37.123Z,12.75
2023-02-13T06:52:04.556Z,11.82
2023-02-13T06:54:46.325Z,12.15
2023-02-13T06:57:14.441Z,11.13
2023-02-13T06:59:42.153Z,12.38
2023-02-13T07:02:16.185Z,13.43
2023-02-13T07:04:43.683Z,17.30
2023-02-13T07:07:10.910Z,13.35
2023-02-13T07:09:38.417Z,10.27
2023-02-13T07:12:05.827Z,12.88
2023-02-13T07:14:33.299Z,14.27
2023-02-13T07:17:00.622Z,11.02
2023-02-13T07:19:28.177Z,12.18
2023-02-13T07:21:55.344Z,12.48
2023-02-13T07:24:22.793Z,10.82
2023-02-13T07:26:49.999Z,15.07
2023-02-13T07:29:17.453Z,11.32
2023-02-13T07:31:44.698Z,15.38
2023-02-13T07:34:12.194Z,10.30
2023-02-13T07:36:39.370Z,10.23
2023-02-13T07:39:06.917Z,9.45
2023-02-13T07:41:34.205Z,10.50
2023-02-13T07:44:01.750Z,11.95
2023-02-13T07:46:28.894Z,8.93
2023-02-13T07:48:56.475Z,11.70
2023-02-13T07:51:26.724Z,12.05
2023-02-13T07:53:55.961Z,10.75
2023-02-13T07:56:23.729Z,9.85
2023-02-13T07:58:51.331Z,9.30
2023-02-13T08:01:19.973Z,11.50
2023-02-13T08:03:51.449Z,14.95
2023-02-13T08:06:20.075Z,11.70
2023-02-13T08:08:47.751Z,17.55
2023-02-13T08:11:49.870Z,15.02
2023-02-13T08:14:17.428Z,12.50
2023-02-13T08:16:44.593Z,12.88
2023-02-13T08:19:12.363Z,15.43
2023-02-13T08:21:40.724Z,9.50
2023-02-13T08:24:08.641Z,11.43
2023-02-13T08:26:35.858Z,12.40
2023-02-13T08:29:04.694Z,12.68
2023-02-13T08:31:32.277Z,12.32
2023-02-13T08:33:59.795Z,10.50
2023-02-13T08:36:26.961Z,11.25
2023-02-13T08:38:54.565Z,11.55
2023-02-13T08:41:23.167Z,16.20
2023-02-13T08:43:50.825Z,18.35
2023-02-13T08:46:18.545Z,16.15
2023-02-13T08:48:46.141Z,13.73
2023-02-13T08:51:14.434Z,14.00
2023-02-13T08:53:42.565Z,15.35
2023-02-13T08:56:10.676Z,12.90
2023-02-13T08:58:38.318Z,12.52
2023-02-13T09:01:07.712Z,14.25
2023-02-13T09:03:36.158Z,12.80
2023-02-13T09:06:04.112Z,14.30
2023-02-13T09:08:31.609Z,14.77
2023-02-13T09:11:04.358Z,9.88
2023-02-13T09:13:37.046Z,13.18
2023-02-13T09:16:07.240Z,15.55
2023-02-13T09:18:35.365Z,13.20
2023-02-13T09:21:05.925Z,13.20
2023-02-13T09:23:35.005Z,10.98
2023-02-13T09:26:03.875Z,14.38
2023-02-13T09:28:33.180Z,13.57
2023-02-13T09:31:00.501Z,12.48
2023-02-13T09:33:27.952Z,15.48
2023-02-13T09:35:55.354Z,10.38
2023-02-13T09:38:22.991Z,11.60
2023-02-13T09:40:53.249Z,16.02
2023-02-13T09:43:31.652Z,13.00
2023-02-13T09:46:12.768Z,11.82
2023-02-13T09:48:45.109Z,11.00
2023-02-13T09:51:18.332Z,17.48
2023-02-13T09:54:00.292Z,17.55
2023-02-13T09:56:54.678Z,19.25
2023-02-13T09:59:39.702Z,19.13
2023-02-13T10:02:38.265Z,13.57
2023-02-13T10:05:24.640Z,13.70
2023-02-13T10:08:12.943Z,9.27
2023-02-13T10:10:56.517Z,12.52
2023-02-13T10:13:42.229Z,11.60
2023-02-13T10:16:17.879Z,10.55
2023-02-13T10:18:57.717Z,9.65
2023-02-13T10:21:30.849Z,11.23
2023-02-13T10:24:04.115Z,9.45
2023-02-13T10:26:45.572Z,8.43
2023-02-13T10:29:38.662Z,10.95
2023-02-13T10:32:10.678Z,11.10
2023-02-13T10:34:46.086Z,10.95
2023-02-13T10:37:19.438Z,12.57
2023-02-13T10:39:50.290Z,14.18
2023-02-13T10:42:39.784Z,8.10
2023-02-13T10:45:19.146Z,8.80
2023-02-13T10:47:49.690Z,9.05
2023-02-13T10:50:22.823Z,11.07
2023-02-13T10:53:11.149Z,9.07
2023-02-13T10:55:49.062Z,8.95
2023-02-13T10:58:22.694Z,18.83
2023-02-13T11:00:59.328Z,8.77
2023-02-13T11:05:58.319Z,8.55
2023-02-13T11:08:40.103Z,8.48
2023-02-13T11:11:30.436Z,8.75
2023-02-13T11:14:18.253Z,11.15
2023-02-13T11:19:47.020Z,7.93
2023-02-13T11:22:36.176Z,11.60
2023-02-13T11:25:28.972Z,11.13
2023-02-13T11:28:18.600Z,10.98
2023-02-13T11:30:46.531Z,8.35
2023-02-13T11:33:22.564Z,15.77
2023-02-13T11:35:50.581Z,13.30
2023-02-13T11:38:20.409Z,21.17
2023-02-13T11:40:50.007Z,19.10
2023-02-13T11:43:35.340Z,15.05
2023-02-13T11:46:06.803Z,17.67
2023-02-13T11:48:34.706Z,15.30
2023-02-13T11:51:03.083Z,14.57
2023-02-13T11:53:39.660Z,23.52
2023-02-13T11:58:34.781Z,13.15
2023-02-13T12:01:08.418Z,11.57
2023-02-13T12:03:35.887Z,13.60
2023-02-13T12:06:06.579Z,11.50
2023-02-13T12:08:36.872Z,11.27
2023-02-13T12:11:12.588Z,10.00
2023-02-13T12:13:40.110Z,11.75
2023-02-13T12:16:16.424Z,15.55
2023-02-13T12:18:50.446Z,12.40
2023-02-13T12:21:44.831Z,11.13
2023-02-13T12:24:32.926Z,12.63
2023-02-13T12:27:18.447Z,10.20
2023-02-13T12:30:16.075Z,11.77
2023-02-13T12:33:05.602Z,15.57
2023-02-13T12:35:58.512Z,13.93
2023-02-13T12:39:03.736Z,19.95
2023-02-13T12:41:48.566Z,17.25
2023-02-13T12:44:22.997Z,11.35
2023-02-13T12:46:53.368Z,12.13
2023-02-13T12:49:20.874Z,16.48
2023-02-13T12:52:13.888Z,13.90
2023-02-13T12:55:18.439Z,12.52
2023-02-13T12:58:13.005Z,18.10
2023-02-13T13:00:52.350Z,12.13
2023-02-13T13:03:35.635Z,14.20
2023-02-13T13:06:19.656Z,14.65
2023-02-13T13:08:46.808Z,16.98
2023-02-13T13:11:16.923Z,15.43
2023-02-13T13:13:56.317Z,14.93
2023-02-13T13:16:54.004Z,16.98
2023-02-13T13:19:36.754Z,15.77
2023-02-13T13:22:18.114Z,16.25
2023-02-13T13:25:17.594Z,21.50
2023-02-13T13:27:49.516Z,13.95
2023-02-13T13:30:36.043Z,15.65
2023-02-13T13:33:19.747Z,21.70
2023-02-13T13:36:01.990Z,15.82
2023-02-13T13:38:34.616Z,17.52
2023-02-13T13:41:37.026Z,13.70
2023-02-13T13:44:26.424Z,17.55
2023-02-13T13:47:02.596Z,15.98
2023-02-13T13:49:51.598Z,12.45
2023-02-13T13:52:28.230Z,12.75
2023-02-13T13:55:00.531Z,17.27
2023-02-13T13:57:40.648Z,19.70
2023-02-13T14:00:14.115Z,14.57
2023-02-13T14:02:46.755Z,14.82
2023-02-13T14:05:28.124Z,14.63
2023-02-13T14:07:59.054Z,15.98
2023-02-13T14:10:26.655Z,24.08
2023-02-13T14:12:56.719Z,20.38
2023-02-13T14:15:44.813Z,22.50
2023-02-13T14:18:19.891Z,21.98
2023-02-13T14:20:50.368Z,19.23
2023-02-13T14:23:53.525Z,20.42
2023-02-13T14:26:36.504Z,16.95
2023-02-13T14:29:22.457Z,20.98
2023-02-13T14:32:03.892Z,18.25
2023-02-13T14:34:34.933Z,14.70
2023-02-13T14:37:11.456Z,18.02
2023-02-13T14:39:42.286Z,15.38
2023-02-13T14:42:27.149Z,19.38
2023-02-13T14:44:59.988Z,19.77
2023-02-13T14:47:35.873Z,15.50
2023-02-13T14:50:07.117Z,17.45
2023-02-13T14:52:43.091Z,14.27
2023-02-13T14:55:40.505Z,19.75
2023-02-13T14:58:20.240Z,11.02
2023-02-13T15:01:08.586Z,11.95
2023-02-13T15:03:46.527Z,16.55
2023-02-13T15:06:35.962Z,14.60
2023-02-13T15:09:14.293Z,17.30
2023-02-13T15:11:43.998Z,15.93
2023-02-13T15:14:28.287Z,12.52
2023-02-13T15:17:16.389Z,14.73
2023-02-13T15:19:56.713Z,11.93
2023-02-13T15:22:36.501Z,15.43
2023-02-13T15:25:04.566Z,17.40
2023-02-13T15:27:36.768Z,13.88
2023-02-13T15:30:17.918Z,16.73
2023-02-13T15:32:45.352Z,14.00
2023-02-13T15:35:27.968Z,14.25
2023-02-13T15:37:55.488Z,14.88
2023-02-13T15:40:32.212Z,14.18
2023-02-13T15:43:01.009Z,13.98
2023-02-13T15:45:31.134Z,13.80
2023-02-13T15:47:59.168Z,15.05
2023-02-13T15:50:29.797Z,17.58
2023-02-13T15:52:57.484Z,12.70
2023-02-13T15:55:28.389Z,15.50
2023-02-13T15:57:59.170Z,12.93
2023-02-13T16:00:31.544Z,13.18
2023-02-13T16:03:02.142Z,12.10
2023-02-13T16:05:40.520Z,14.20
2023-02-13T16:09:01.771Z,13.13
2023-02-13T16:11:35.221Z,12.70
2023-02-13T16:14:21.385Z,13.80
2023-02-13T16:17:17.014Z,14.38
2023-02-13T16:19:59.420Z,18.52
2023-02-13T16:22:32.510Z,16.40
2023-02-13T16:25:09.798Z,12.43
2023-02-13T16:27:40.892Z,11.57
2023-02-13T16:30:25.870Z,15.32
2023-02-13T16:33:14.825Z,10.43
2023-02-13T16:35:45.940Z,11.43
2023-02-13T16:38:31.324Z,10.10
2023-02-13T16:41:06.060Z,9.45
2023-02-13T16:43:45.150Z,14.80
2023-02-13T16:46:15.270Z,13.27
2023-02-13T16:48:44.716Z,11.30
2023-02-13T16:51:12.050Z,14.50
2023-02-13T16:53:40.523Z,14.60
2023-02-13T16:56:10.703Z,17.23
2023-02-13T16:58:38.374Z,10.65
2023-02-13T17:01:06.006Z,12.82
2023-02-13T17:03:33.492Z,14.63
2023-02-13T17:06:02.662Z,11.90
2023-02-13T17:08:31.595Z,8.75
2023-02-13T17:11:07.226Z,10.23
2023-02-13T17:13:35.130Z,10.65
2023-02-13T17:16:02.451Z,11.50
2023-02-13T17:18:29.975Z,11.57
2023-02-13T17:20:57.582Z,11.40
2023-02-13T17:23:25.463Z,12.82
2023-02-13T17:25:53.987Z,17.90
2023-02-13T17:28:24.328Z,10.10
2023-02-13T17:30:54.120Z,9.65
2023-02-13T17:33:24.516Z,13.57
2023-02-13T17:35:52.868Z,10.65
2023-02-13T17:38:21.157Z,11.02
2023-02-13T17:40:49.164Z,10.95
2023-02-13T17:43:18.818Z,11.55
2023-02-13T17:45:46.972Z,12.98
2023-02-13T17:48:14.513Z,10.63
2023-02-13T17:50:41.821Z,12.13
2023-02-13T17:53:20.939Z,12.45
2023-02-13T17:55:48.236Z,11.45
2023-02-13T17:58:15.774Z,11.70
2023-02-13T18:00:42.961Z,10.93
2023-02-13T18:03:12.652Z,12.30
2023-02-13T18:05:40.754Z,53.60
2023-02-13T18:08:08.634Z,12.35
2023-02-13T18:10:36.914Z,10.57
2023-02-13T18:13:04.994Z,13.57
2023-02-13T18:15:40.818Z,12.02
2023-02-13T18:18:08.667Z,9.60
2023-02-13T18:20:36.525Z,10.98
2023-02-13T18:23:04.046Z,10.38
2023-02-13T18:25:31.473Z,8.23
2023-02-13T18:27:59.121Z,11.30
2023-02-13T18:30:26.585Z,10.32
2023-02-13T18:32:55.746Z,9.65
2023-02-13T18:35:23.542Z,11.07
2023-02-13T18:37:51.538Z,12.93
2023-02-13T18:40:19.004Z,10.98
2023-02-13T18:42:46.729Z,12.32
2023-02-13T18:45:14.869Z,13.85
2023-02-13T18:47:43.219Z,13.65
2023-02-13T18:50:10.705Z,15.82
2023-02-13T18:52:38.476Z,9.95
2023-02-13T18:55:09.486Z,10.18
2023-02-13T18:57:36.752Z,11.00
2023-02-13T19:00:05.620Z,13.77
2023-02-13T19:02:33.494Z,13.38
2023-02-13T19:05:01.478Z,18.23
2023-02-13T19:07:28.744Z,17.02
2023-02-13T19:09:56.569Z,16.20
2023-02-13T19:12:24.016Z,12.52
2023-02-13T19:14:51.528Z,12.95
2023-02-13T19:17:18.805Z,12.18
2023-02-13T19:19:48.516Z,12.60
2023-02-13T19:22:15.947Z,12.38
2023-02-13T19:24:43.952Z,12.80
2023-02-13T19:27:11.468Z,13.45
2023-02-13T19:29:39.208Z,13.23
2023-02-13T19:32:06.457Z,10.13
2023-02-13T19:34:33.869Z,9.77
2023-02-13T19:37:01.083Z,17.90
2023-02-13T19:39:28.489Z,19.33
2023-02-13T19:41:55.757Z,17.33
2023-02-13T19:44:23.295Z,15.95
2023-02-13T19:46:50.635Z,14.73
2023-02-13T19:49:19.564Z,17.33
2023-02-13T19:51:47.361Z,12.02
2023-02-13T19:54:14.899Z,14.52
2023-02-13T19:56:42.238Z,12.18
2023-02-13T19:59:13.584Z,11.75
2023-02-13T20:01:42.891Z,10.77
2023-02-13T20:04:11.247Z,11.20
2023-02-13T20:06:38.979Z,13.05
2023-02-13T20:09:10.307Z,11.40
2023-02-13T20:11:39.046Z,8.45
2023-02-13T20:14:11.450Z,12.27
2023-02-13T20:16:39.391Z,10.32
2023-02-13T20:19:09.643Z,8.43
2023-02-13T20:21:37.737Z,11.23
2023-02-13T20:24:05.838Z,11.45
2023-02-13T20:26:34.373Z,11.20
2023-02-13T20:29:02.074Z,12.38
2023-02-13T20:31:30.543Z,10.15
2023-02-13T20:33:58.798Z,9.55
2023-02-13T20:36:29.433Z,9.45
2023-02-13T20:39:00.003Z,7.95
2023-02-13T20:41:30.411Z,10.50
2023-02-13T20:44:03.546Z,11.25
2023-02-13T20:46:32.459Z,10.95
2023-02-13T20:48:59.957Z,11.25
2023-02-13T20:51:28.194Z,8.95
2023-02-13T20:53:56.362Z,12.77
2023-02-13T20:56:25.488Z,9.55
2023-02-13T20:58:55.782Z,11.10
2023-02-13T21:01:26.628Z,12.30
2023-02-13T21:03:56.188Z,12.27
2023-02-13T21:06:26.271Z,8.23
2023-02-13T21:08:54.600Z,11.43
2023-02-13T21:11:22.077Z,8.85
2023-02-13T21:13:50.065Z,10.50
2023-02-13T21:16:26.752Z,7.38
2023-02-13T21:18:57.074Z,13.38
2023-02-13T21:21:26.706Z,10.63
2023-02-13T21:23:56.283Z,10.10
2023-02-13T21:26:23.953Z,10.07
2023-02-13T21:28:51.761Z,12.40
2023-02-13T21:31:25.675Z,12.85
2023-02-13T21:33:53.322Z,10.52
2023-02-13T21:36:23.494Z,13.23
2023-02-13T21:38:51.064Z,15.23
2023-02-13T21:41:19.043Z,8.05
2023-02-13T21:43:48.325Z,9.35
2023-02-13T21:46:18.568Z,7.53
2023-02-13T21:48:46.520Z,8.18
2023-02-13T21:51:21.377Z,9.80
2023-02-13T21:53:49.822Z,8.98
2023-02-13T21:56:19.432Z,11.10
2023-02-13T21:58:47.641Z,9.25
2023-02-13T22:01:25.412Z,13.10
2023-02-13T22:04:01.066Z,7.30
2023-02-13T22:06:33.361Z,8.15
2023-02-13T22:09:06.684Z,7.40
2023-02-13T22:11:34.879Z,10.90
2023-02-13T22:14:05.288Z,10.18
2023-02-13T22:16:34.902Z,8.55
2023-02-13T22:19:03.205Z,12.13
2023-02-13T22:21:32.292Z,9.77
2023-02-13T22:24:00.488Z,6.45
2023-02-13T22:26:36.872Z,9.30
2023-02-13T22:29:10.204Z,9.82
2023-02-13T22:31:37.873Z,13.15
2023-02-13T22:34:06.250Z,10.48
2023-02-13T22:36:35.680Z,9.05
2023-02-13T22:39:03.238Z,11.85
2023-02-13T22:41:30.589Z,8.93
2023-02-13T22:43:58.189Z,8.32
2023-02-13T22:46:28.136Z,9.48
2023-02-13T22:48:56.072Z,7.70
2023-02-13T22:51:31.922Z,9.18
2023-02-13T22:53:59.946Z,10.55
2023-02-13T22:56:29.219Z,10.73
2023-02-13T22:58:57.175Z,8.90
2023-02-13T23:01:26.367Z,9.30
2023-02-13T23:03:54.995Z,8.57
2023-02-13T23:06:22.391Z,5.25
2023-02-13T23:08:53.523Z,10.55
2023-02-13T23:11:42.588Z,13.80
2023-02-13T23:14:10.664Z,7.28
2023-02-13T23:16:57.872Z,8.93
2023-02-13T23:21:54.842Z,8.55
2023-02-13T23:24:22.426Z,9.40
2023-02-13T23:26:49.589Z,8.25
2023-02-13T23:29:17.226Z,13.35
2023-02-13T23:31:44.484Z,9.38
2023-02-13T23:34:12.051Z,10.23
2023-02-13T23:36:39.169Z,12.25
2023-02-13T23:39:06.725Z,12.75
2023-02-13T23:41:33.924Z,10.90
2023-02-13T23:44:01.494Z,9.50
2023-02-13T23:46:28.737Z,12.50
2023-02-13T23:48:57.517Z,9.30
2023-02-13T23:51:25.875Z,11.75
2023-02-13T23:53:56.274Z,10.13
2023-02-13T23:56:25.058Z,10.77
2023-02-13T23:58:53.164Z,11.23
